createdAt,value
2023-03-05T00:01:10.852Z,0.83
2023-03-05T00:03:37.938Z,0.57
2023-03-05T00:06:05.577Z,0.63
2023-03-05T00:08:33.072Z,1.07
2023-03-05T00:11:07.902Z,1.00
2023-03-05T00:13:35.112Z,0.80
2023-03-05T00:16:10.740Z,0.80
2023-03-05T00:18:38.192Z,0.70
2023-03-05T00:21:17.243Z,1.03
2023-03-05T00:23:44.222Z,1.30
2023-03-05T00:26:10.807Z,0.70
2023-03-05T00:28:37.358Z,0.80
2023-03-05T00:31:04.185Z,1.90
2023-03-05T00:33:30.881Z,0.40
2023-03-05T00:35:57.989Z,0.67
2023-03-05T00:38:24.694Z,1.27
2023-03-05T00:40:51.701Z,0.70
2023-03-05T00:43:18.258Z,0.80
2023-03-05T00:45:44.797Z,0.40
2023-03-05T00:48:11.381Z,0.53
2023-03-05T00:50:38.077Z,0.50
2023-03-05T00:53:04.851Z,0.40
2023-03-05T00:55:31.654Z,0.40
2023-03-05T00:57:58.350Z,0.50
2023-03-05T01:00:25.106Z,0.47
2023-03-05T01:02:51.763Z,0.57
2023-03-05T01:05:18.444Z,0.60
2023-03-05T01:07:45.041Z,0.80
2023-03-05T01:10:12.973Z,0.43
2023-03-05T01:12:39.844Z,0.90
2023-03-05T01:15:07.015Z,0.60
2023-03-05T01:17:34.629Z,0.60
2023-03-05T01:20:01.439Z,0.90
2023-03-05T01:22:28.124Z,0.60
2023-03-05T01:24:54.946Z,0.50
2023-03-05T01:27:21.667Z,0.47
2023-03-05T01:29:48.311Z,0.60
2023-03-05T01:32:15.018Z,0.90
2023-03-05T01:34:42.226Z,0.63
2023-03-05T01:37:09.523Z,0.87
2023-03-05T01:39:36.542Z,0.47
2023-03-05T01:42:04.449Z,0.40
2023-03-05T01:44:32.234Z,0.93
2023-03-05T01:46:58.919Z,0.60
2023-03-05T01:49:38.532Z,1.07
2023-03-05T01:52:17.653Z,1.20
2023-03-05T01:54:52.250Z,0.30
2023-03-05T01:57:44.559Z,0.30
2023-03-05T02:00:17.731Z,0.80
2023-03-05T02:02:49.051Z,0.73
2023-03-05T02:05:27.229Z,0.50
2023-03-05T02:07:59.281Z,0.43
2023-03-05T02:10:29.595Z,0.50
2023-03-05T02:12:59.296Z,0.97
2023-03-05T02:15:25.921Z,0.23
2023-03-05T02:17:52.669Z,1.03
2023-03-05T02:20:22.992Z,0.23
2023-03-05T02:22:49.531Z,0.73
2023-03-05T02:25:24.781Z,0.53
2023-03-05T02:28:00.308Z,1.07
2023-03-05T02:30:27.055Z,0.63
2023-03-05T02:32:53.828Z,0.70
2023-03-05T02:35:21.134Z,0.57
2023-03-05T02:37:47.895Z,0.80
2023-03-05T02:40:15.358Z,0.47
2023-03-05T02:42:42.593Z,0.43
2023-03-05T02:45:10.747Z,0.43
2023-03-05T02:47:37.745Z,0.30
2023-03-05T02:50:06.358Z,0.70
2023-03-05T02:52:33.061Z,0.70
2023-03-05T02:54:59.796Z,0.40
2023-03-05T02:57:26.365Z,0.30
2023-03-05T02:59:54.478Z,0.73
2023-03-05T03:02:21.363Z,1.03
2023-03-05T03:04:50.500Z,0.37
2023-03-05T03:10:08.846Z,0.30
2023-03-05T03:12:44.053Z,0.30
2023-03-05T03:15:13.364Z,0.27
2023-03-05T03:17:40.439Z,0.57
2023-03-05T03:20:09.493Z,0.40
2023-03-05T03:22:36.476Z,0.40
2023-03-05T03:25:05.012Z,0.47
2023-03-05T03:27:31.822Z,0.10
2023-03-05T03:30:02.706Z,0.50
2023-03-05T03:32:29.688Z,0.10
2023-03-05T03:34:56.291Z,0.23
2023-03-05T03:37:23.138Z,0.40
2023-03-05T03:39:49.733Z,0.30
2023-03-05T03:42:21.400Z,0.20
2023-03-05T03:44:48.234Z,0.37
2023-03-05T03:47:14.996Z,0.33
2023-03-05T03:49:41.744Z,0.30
2023-03-05T03:52:08.377Z,0.37
2023-03-05T03:54:34.994Z,0.20
2023-03-05T03:57:01.616Z,0.30
2023-03-05T03:59:28.499Z,0.27
2023-03-05T04:01:55.400Z,0.67
2023-03-05T04:04:21.993Z,0.40
2023-03-05T04:06:48.752Z,0.20
2023-03-05T04:09:15.400Z,0.13
2023-03-05T04:11:42.045Z,0.57
2023-03-05T04:14:08.687Z,0.30
2023-03-05T04:16:35.362Z,0.37
2023-03-05T04:19:02.083Z,0.20
2023-03-05T04:21:29.738Z,0.10
2023-03-05T04:23:56.380Z,0.60
2023-03-05T04:26:23.056Z,0.60
2023-03-05T04:28:49.732Z,1.13
2023-03-05T04:31:17.423Z,0.40
2023-03-05T04:33:44.213Z,0.20
2023-03-05T04:36:10.841Z,0.30
2023-03-05T04:38:37.541Z,0.10
2023-03-05T04:41:04.363Z,0.40
2023-03-05T04:43:31.062Z,0.33
2023-03-05T04:45:57.768Z,0.20
2023-03-05T04:48:24.503Z,0.50
2023-03-05T04:50:51.212Z,0.30
2023-03-05T04:53:18.165Z,0.70
2023-03-05T04:55:44.979Z,0.40
2023-03-05T04:58:11.550Z,0.80
2023-03-05T05:00:38.945Z,0.70
2023-03-05T05:03:05.723Z,0.33
2023-03-05T05:05:32.311Z,0.60
2023-03-05T05:07:59.188Z,0.20
2023-03-05T05:10:26.218Z,0.40
2023-03-05T05:12:53.044Z,0.40
2023-03-05T05:15:19.840Z,0.70
2023-03-05T05:17:46.693Z,0.10
2023-03-05T05:20:14.685Z,0.70
2023-03-05T05:22:41.564Z,0.17
2023-03-05T05:25:08.928Z,0.70
2023-03-05T05:27:35.538Z,0.20
2023-03-05T05:30:02.901Z,0.30
2023-03-05T05:32:29.807Z,0.17
2023-03-05T05:34:59.645Z,0.30
2023-03-05T05:37:27.417Z,0.17
2023-03-05T05:39:54.323Z,0.30
2023-03-05T05:42:24.062Z,0.40
2023-03-05T05:44:50.806Z,0.20
2023-03-05T05:47:18.428Z,0.40
2023-03-05T05:49:45.194Z,0.50
2023-03-05T05:52:12.356Z,0.40
2023-03-05T05:54:39.328Z,0.50
2023-03-05T05:57:06.698Z,0.50
2023-03-05T05:59:33.725Z,0.30
2023-03-05T06:02:00.529Z,0.20
2023-03-05T06:04:27.402Z,0.20
2023-03-05T06:06:54.016Z,0.20
2023-03-05T06:09:20.920Z,0.40
2023-03-05T06:11:47.631Z,0.30
2023-03-05T06:14:14.562Z,1.17
2023-03-05T06:16:42.361Z,0.30
2023-03-05T06:19:12.241Z,0.20
2023-03-05T06:21:39.474Z,0.40
2023-03-05T06:24:06.420Z,0.40
2023-03-05T06:26:33.320Z,0.60
2023-03-05T06:29:00.020Z,0.33
2023-03-05T06:31:28.289Z,0.40
2023-03-05T06:33:57.650Z,0.73
2023-03-05T06:36:25.983Z,0.40
2023-03-05T06:38:54.052Z,0.33
2023-03-05T06:41:23.269Z,0.93
2023-03-05T06:43:49.946Z,0.30
2023-03-05T06:46:22.769Z,0.30
2023-03-05T06:48:49.853Z,0.27
2023-03-05T06:51:18.688Z,0.63
2023-03-05T06:53:49.001Z,0.27
2023-03-05T06:56:17.103Z,1.30
2023-03-05T06:58:46.103Z,0.30
2023-03-05T07:01:14.109Z,0.70
2023-03-05T07:03:41.189Z,0.40
2023-03-05T07:06:10.689Z,0.70
2023-03-05T07:08:38.128Z,0.40
2023-03-05T07:11:10.036Z,0.70
2023-03-05T07:13:36.949Z,0.67
2023-03-05T07:16:13.705Z,0.60
2023-03-05T07:18:40.496Z,1.03
2023-03-05T07:21:08.500Z,0.70
2023-03-05T07:23:36.086Z,1.10
2023-03-05T07:26:04.398Z,0.70
2023-03-05T07:28:31.338Z,0.50
2023-03-05T07:30:59.305Z,0.70
2023-03-05T07:33:26.862Z,0.67
2023-03-05T07:35:53.925Z,0.40
2023-03-05T07:38:21.218Z,0.50
2023-03-05T07:40:47.991Z,0.30
2023-03-05T07:43:14.766Z,0.80
2023-03-05T07:45:45.055Z,0.40
2023-03-05T07:48:18.247Z,0.20
2023-03-05T07:50:45.002Z,0.77
2023-03-05T07:53:11.796Z,0.60
2023-03-05T07:55:48.021Z,0.53
2023-03-05T07:58:14.711Z,0.57
2023-03-05T08:00:41.679Z,0.57
2023-03-05T08:03:08.435Z,0.67
2023-03-05T08:05:35.110Z,0.50
2023-03-05T08:08:01.792Z,0.60
2023-03-05T08:10:28.445Z,0.93
2023-03-05T08:12:55.092Z,0.30
2023-03-05T08:15:21.831Z,0.47
2023-03-05T08:17:48.679Z,0.77
2023-03-05T08:20:15.383Z,1.27
2023-03-05T08:22:42.150Z,0.80
2023-03-05T08:25:10.138Z,0.90
2023-03-05T08:27:44.498Z,0.73
2023-03-05T08:30:14.400Z,0.70
2023-03-05T08:32:41.154Z,0.70
2023-03-05T08:35:09.717Z,0.20
2023-03-05T08:37:37.067Z,0.60
2023-03-05T08:40:05.257Z,0.50
2023-03-05T08:42:31.983Z,1.10
2023-03-05T08:44:58.582Z,0.53
2023-03-05T08:47:26.719Z,0.70
2023-03-05T08:49:57.350Z,0.20
2023-03-05T08:52:24.791Z,0.20
2023-03-05T08:54:51.483Z,0.47
2023-03-05T08:57:18.216Z,0.50
2023-03-05T08:59:44.952Z,0.30
2023-03-05T09:02:13.620Z,0.20
2023-03-05T09:04:40.625Z,0.50
2023-03-05T09:07:09.022Z,0.43
2023-03-05T09:09:36.562Z,0.40
2023-03-05T09:12:03.382Z,0.40
2023-03-05T09:14:30.252Z,0.80
2023-03-05T09:16:58.240Z,0.70
2023-03-05T09:19:25.111Z,0.67
2023-03-05T09:21:51.614Z,0.53
2023-03-05T09:24:18.108Z,0.50
2023-03-05T09:26:44.687Z,0.50
2023-03-05T09:29:12.519Z,1.00
2023-03-05T09:31:39.790Z,0.63
2023-03-05T09:34:08.296Z,0.40
2023-03-05T09:36:35.342Z,0.30
2023-03-05T09:39:02.378Z,0.43
2023-03-05T09:41:36.049Z,0.80
2023-03-05T09:44:11.612Z,0.43
2023-03-05T09:47:14.776Z,0.47
2023-03-05T09:49:55.528Z,0.53
2023-03-05T09:52:27.319Z,0.60
2023-03-05T09:54:57.250Z,0.50
2023-03-05T09:57:41.448Z,0.47
2023-03-05T10:00:38.976Z,1.03
2023-03-05T10:03:12.384Z,0.60
2023-03-05T10:05:53.334Z,0.60
2023-03-05T10:08:25.344Z,0.60
2023-03-05T10:10:54.252Z,0.33
2023-03-05T10:13:43.051Z,1.33
2023-03-05T10:16:46.171Z,0.50
2023-03-05T10:19:51.053Z,0.60
2023-03-05T10:22:28.173Z,0.70
2023-03-05T10:25:20.469Z,0.53
2023-03-05T10:27:54.074Z,0.80
2023-03-05T10:30:27.222Z,0.83
2023-03-05T10:33:26.134Z,1.17
2023-03-05T10:36:20.955Z,0.50
2023-03-05T10:39:00.119Z,0.60
2023-03-05T10:41:37.609Z,0.60
2023-03-05T10:44:26.656Z,0.87
2023-03-05T10:46:58.224Z,0.60
2023-03-05T10:49:36.593Z,0.30
2023-03-05T10:52:13.679Z,0.30
2023-03-05T10:54:42.924Z,0.30
2023-03-05T10:57:23.100Z,0.80
2023-03-05T10:59:55.234Z,0.40
2023-03-05T11:02:23.104Z,0.60
2023-03-05T11:04:50.970Z,0.30
2023-03-05T11:07:17.582Z,0.63
2023-03-05T11:10:02.121Z,0.30
2023-03-05T11:12:37.744Z,0.73
2023-03-05T11:15:10.384Z,0.40
2023-03-05T11:17:44.792Z,0.50
2023-03-05T11:20:29.273Z,0.53
2023-03-05T11:23:06.619Z,0.40
2023-03-05T11:25:35.012Z,0.20
2023-03-05T11:28:03.335Z,0.57
2023-03-05T11:30:35.753Z,0.40
2023-03-05T11:33:23.813Z,0.30
2023-03-05T11:35:52.162Z,0.40
2023-03-05T11:38:23.875Z,0.63
2023-03-05T11:40:53.393Z,0.40
2023-03-05T11:43:23.040Z,0.50
2023-03-05T11:45:54.674Z,0.40
2023-03-05T11:48:28.898Z,0.50
2023-03-05T11:51:01.399Z,0.70
2023-03-05T11:53:38.866Z,0.80
2023-03-05T11:56:19.035Z,0.70
2023-03-05T11:58:55.993Z,0.47
2023-03-05T12:01:25.663Z,0.30
2023-03-05T12:03:53.414Z,0.60
2023-03-05T12:06:29.764Z,0.33
2023-03-05T12:09:00.218Z,0.53
2023-03-05T12:11:32.408Z,0.37
2023-03-05T12:14:19.436Z,0.23
2023-03-05T12:16:52.150Z,0.67
2023-03-05T12:19:32.987Z,0.10
2023-03-05T12:21:59.768Z,0.83
2023-03-05T12:24:28.409Z,0.70
2023-03-05T12:27:04.731Z,0.37
2023-03-05T12:29:42.117Z,0.50
2023-03-05T12:32:44.271Z,0.57
2023-03-05T12:35:37.246Z,0.80
2023-03-05T12:38:39.791Z,0.73
2023-03-05T12:41:26.819Z,0.50
2023-03-05T12:44:06.365Z,0.60
2023-03-05T12:46:36.264Z,0.33
2023-03-05T12:49:18.282Z,0.50
2023-03-05T12:51:46.975Z,0.63
2023-03-05T12:54:29.490Z,0.37
2023-03-05T12:56:59.371Z,0.30
2023-03-05T12:59:34.674Z,1.00
2023-03-05T13:02:10.016Z,0.40
2023-03-05T13:04:46.489Z,0.30
2023-03-05T13:07:18.216Z,0.23
2023-03-05T13:09:56.486Z,0.27
2023-03-05T13:12:26.472Z,0.73
2023-03-05T13:15:05.603Z,0.50
2023-03-05T13:17:40.265Z,0.70
2023-03-05T13:20:37.747Z,0.50
2023-03-05T13:23:05.649Z,0.20
2023-03-05T13:25:32.320Z,0.67
2023-03-05T13:28:11.876Z,0.83
2023-03-05T13:30:38.757Z,0.90
2023-03-05T13:33:05.960Z,0.60
2023-03-05T13:35:33.660Z,0.30
2023-03-05T13:38:02.358Z,0.73
2023-03-05T13:40:32.273Z,0.60
2023-03-05T13:43:20.102Z,0.97
2023-03-05T13:45:55.157Z,0.80
2023-03-05T13:48:22.376Z,0.70
2023-03-05T13:50:59.497Z,1.00
2023-03-05T13:53:31.835Z,0.70
2023-03-05T13:56:07.707Z,0.50
2023-03-05T13:58:41.778Z,0.50
2023-03-05T14:01:38.245Z,0.80
2023-03-05T14:04:36.125Z,1.07
2023-03-05T14:07:30.150Z,0.87
2023-03-05T14:09:56.938Z,0.87
2023-03-05T14:12:32.630Z,0.83
2023-03-05T14:15:02.215Z,0.57
2023-03-05T14:17:30.137Z,0.70
2023-03-05T14:20:19.163Z,0.70
2023-03-05T14:22:48.472Z,0.70
2023-03-05T14:25:44.580Z,0.90
2023-03-05T14:28:16.743Z,0.90
2023-03-05T14:30:52.550Z,1.13
2023-03-05T14:33:28.486Z,0.70
2023-03-05T14:35:57.724Z,0.50
2023-03-05T14:38:28.960Z,0.73
2023-03-05T14:40:55.707Z,1.33
2023-03-05T14:43:22.357Z,0.80
2023-03-05T14:45:48.958Z,0.73
2023-03-05T14:48:18.768Z,1.00
2023-03-05T14:50:53.186Z,0.50
2023-03-05T14:53:24.067Z,0.80
2023-03-05T14:55:56.934Z,0.70
2023-03-05T14:58:27.637Z,0.37
2023-03-05T15:00:55.550Z,0.60
2023-03-05T15:03:23.064Z,0.60
2023-03-05T15:05:56.822Z,1.23
2023-03-05T15:08:25.248Z,0.53
2023-03-05T15:10:52.813Z,1.00
2023-03-05T15:13:20.046Z,1.20
2023-03-05T15:15:48.032Z,1.30
2023-03-05T15:18:17.652Z,0.77
2023-03-05T15:20:46.372Z,1.43
2023-03-05T15:23:13.124Z,0.73
2023-03-05T15:25:40.096Z,0.70
2023-03-05T15:28:07.391Z,0.77
2023-03-05T15:30:37.218Z,0.87
2023-03-05T15:33:06.790Z,0.93
2023-03-05T15:35:33.664Z,0.70
2023-03-05T15:38:00.571Z,0.60
2023-03-05T15:40:28.519Z,0.70
2023-03-05T15:42:56.712Z,1.00
2023-03-05T15:45:23.414Z,0.97
2023-03-05T15:47:51.887Z,0.60
2023-03-05T15:50:20.461Z,0.70
2023-03-05T15:52:49.256Z,0.70
2023-03-05T15:55:16.176Z,0.93
2023-03-05T15:57:45.010Z,0.50
2023-03-05T16:00:13.200Z,1.10
2023-03-05T16:02:39.892Z,0.80
2023-03-05T16:05:07.824Z,0.70
2023-03-05T16:07:38.909Z,0.77
2023-03-05T16:10:07.045Z,0.70
2023-03-05T16:12:40.915Z,0.83
2023-03-05T16:15:13.578Z,1.00
2023-03-05T16:17:44.017Z,0.90
2023-03-05T16:20:12.468Z,0.47
2023-03-05T16:22:39.147Z,0.80
2023-03-05T16:25:06.656Z,0.50
2023-03-05T16:27:33.758Z,0.50
2023-03-05T16:30:00.308Z,0.73
2023-03-05T16:32:27.015Z,0.70
2023-03-05T16:34:53.786Z,1.07
2023-03-05T16:37:23.218Z,1.20
2023-03-05T16:39:50.727Z,0.90
2023-03-05T16:42:17.523Z,0.70
2023-03-05T16:44:44.444Z,0.70
2023-03-05T16:47:12.285Z,0.57
2023-03-05T16:49:39.783Z,0.80
2023-03-05T16:52:18.303Z,0.73
2023-03-05T16:54:46.119Z,1.23
2023-03-05T16:57:12.802Z,1.07
2023-03-05T16:59:39.551Z,1.00
2023-03-05T17:02:06.406Z,0.80
2023-03-05T17:04:33.781Z,0.60
2023-03-05T17:07:00.270Z,0.70
2023-03-05T17:09:26.911Z,1.10
2023-03-05T17:11:54.479Z,0.63
2023-03-05T17:14:22.018Z,1.03
2023-03-05T17:16:49.015Z,1.50
2023-03-05T17:19:15.770Z,1.30
2023-03-05T17:21:42.898Z,0.77
2023-03-05T17:24:10.201Z,1.27
2023-03-05T17:26:37.571Z,1.23
2023-03-05T17:29:04.583Z,1.00
2023-03-05T17:31:31.258Z,1.10
2023-03-05T17:33:57.992Z,1.27
2023-03-05T17:36:25.482Z,1.20
2023-03-05T17:38:54.242Z,1.63
2023-03-05T17:41:21.250Z,1.40
2023-03-05T17:43:47.912Z,1.20
2023-03-05T17:46:15.645Z,1.57
2023-03-05T17:48:42.763Z,2.30
2023-03-05T17:51:12.191Z,1.97
2023-03-05T17:53:40.492Z,1.77
2023-03-05T17:56:12.271Z,1.17
2023-03-05T17:58:39.881Z,1.60
2023-03-05T18:01:07.902Z,1.17
2023-03-05T18:03:35.715Z,1.67
2023-03-05T18:06:02.529Z,1.20
2023-03-05T18:08:29.248Z,1.47
2023-03-05T18:10:55.894Z,2.10
2023-03-05T18:13:22.562Z,1.70
2023-03-05T18:15:49.084Z,1.93
2023-03-05T18:18:17.652Z,1.30
2023-03-05T18:20:45.119Z,1.30
2023-03-05T18:23:11.859Z,1.13
2023-03-05T18:25:38.419Z,1.57
2023-03-05T18:28:09.867Z,1.43
2023-03-05T18:30:37.335Z,1.83
2023-03-05T18:33:04.393Z,1.87
2023-03-05T18:35:32.316Z,2.00
2023-03-05T18:37:59.563Z,1.40
2023-03-05T18:40:29.035Z,1.20
2023-03-05T18:42:55.728Z,1.00
2023-03-05T18:45:23.146Z,1.50
2023-03-05T18:47:54.178Z,1.80
2023-03-05T18:50:22.019Z,1.90
2023-03-05T18:52:48.623Z,1.43
2023-03-05T18:55:22.040Z,1.90
2023-03-05T18:57:49.549Z,2.57
2023-03-05T19:00:18.359Z,2.40
2023-03-05T19:02:45.079Z,2.63
2023-03-05T19:05:14.071Z,2.37
2023-03-05T19:07:41.005Z,2.33
2023-03-05T19:10:10.842Z,2.30
2023-03-05T19:12:49.226Z,1.83
2023-03-05T19:15:16.856Z,2.00
2023-03-05T19:17:43.470Z,1.50
2023-03-05T19:20:14.212Z,1.50
2023-03-05T19:22:40.718Z,2.00
2023-03-05T19:25:08.628Z,1.90
2023-03-05T19:27:35.631Z,1.63
2023-03-05T19:30:02.518Z,1.83
2023-03-05T19:32:29.371Z,1.87
2023-03-05T19:34:58.128Z,1.70
2023-03-05T19:37:25.292Z,2.03
2023-03-05T19:39:52.085Z,1.57
2023-03-05T19:42:18.890Z,2.13
2023-03-05T19:44:45.831Z,2.03
2023-03-05T19:47:12.482Z,2.00
2023-03-05T19:49:39.106Z,1.80
2023-03-05T19:52:06.434Z,2.27
2023-03-05T19:54:33.349Z,2.97
2023-03-05T19:57:00.250Z,3.20
2023-03-05T19:59:27.009Z,2.13
2023-03-05T20:01:53.727Z,2.03
2023-03-05T20:04:22.730Z,2.70
2023-03-05T20:06:49.293Z,2.20
2023-03-05T20:09:16.521Z,2.07
2023-03-05T20:11:43.715Z,1.70
2023-03-05T20:14:13.123Z,2.10
2023-03-05T20:16:39.836Z,2.93
2023-03-05T20:19:07.753Z,1.80
2023-03-05T20:21:37.361Z,2.50
2023-03-05T20:24:09.665Z,2.40
2023-03-05T20:26:38.559Z,1.50
2023-03-05T20:29:05.668Z,1.97
2023-03-05T20:31:35.398Z,2.13
2023-03-05T20:34:02.133Z,1.77
2023-03-05T20:36:28.744Z,2.93
2023-03-05T20:38:55.979Z,2.53
2023-03-05T20:41:22.886Z,2.33
2023-03-05T20:43:51.440Z,2.30
2023-03-05T20:46:22.401Z,1.93
2023-03-05T20:48:51.645Z,1.77
2023-03-05T20:51:28.007Z,2.63
2023-03-05T20:53:58.776Z,1.60
2023-03-05T20:56:28.038Z,1.80
2023-03-05T20:58:55.868Z,2.03
2023-03-05T21:01:22.672Z,1.87
2023-03-05T21:03:49.967Z,1.90
2023-03-05T21:06:16.912Z,1.43
2023-03-05T21:08:44.830Z,1.80
2023-03-05T21:11:12.602Z,2.10
2023-03-05T21:13:39.534Z,2.00
2023-03-05T21:16:08.402Z,2.20
2023-03-05T21:18:35.909Z,1.93
2023-03-05T21:21:03.135Z,3.00
2023-03-05T21:23:29.909Z,3.07
2023-03-05T21:25:56.610Z,2.33
2023-03-05T21:28:23.315Z,2.20
2023-03-05T21:30:52.366Z,1.90
2023-03-05T21:33:23.334Z,2.03
2023-03-05T21:35:54.681Z,2.63
2023-03-05T21:38:23.236Z,2.50
2023-03-05T21:40:51.791Z,1.73
2023-03-05T21:43:21.523Z,2.43
2023-03-05T21:45:49.424Z,2.57
2023-03-05T21:48:16.338Z,2.90
2023-03-05T21:50:45.074Z,2.03
2023-03-05T21:53:12.964Z,1.83
2023-03-05T21:55:59.089Z,3.17
2023-03-05T21:58:25.798Z,2.17
2023-03-05T22:00:52.553Z,1.80
2023-03-05T22:03:20.103Z,2.57
2023-03-05T22:05:46.726Z,2.87
2023-03-05T22:08:13.481Z,2.30
2023-03-05T22:10:41.556Z,2.30
2023-03-05T22:13:10.216Z,2.27
2023-03-05T22:15:51.593Z,1.90
2023-03-05T22:18:24.024Z,1.70
2023-03-05T22:20:51.609Z,2.93
2023-03-05T22:23:19.463Z,2.53
2023-03-05T22:25:46.165Z,2.20
2023-03-05T22:28:13.832Z,1.93
2023-03-05T22:30:44.283Z,2.53
2023-03-05T22:33:11.319Z,2.47
2023-03-05T22:35:41.987Z,2.23
2023-03-05T22:38:10.240Z,1.97
2023-03-05T22:40:40.246Z,2.50
2023-03-05T22:43:06.945Z,2.63
2023-03-05T22:45:33.764Z,2.70
2023-03-05T22:48:00.411Z,2.70
2023-03-05T22:50:27.456Z,1.83
2023-03-05T22:52:54.141Z,2.23
2023-03-05T22:55:21.539Z,2.63
2023-03-05T22:57:48.833Z,2.83
2023-03-05T23:00:21.725Z,2.90
2023-03-05T23:02:48.356Z,2.70
2023-03-05T23:05:15.030Z,1.90
2023-03-05T23:07:44.069Z,2.40
2023-03-05T23:10:24.368Z,2.20
2023-03-05T23:12:53.947Z,2.13
2023-03-05T23:15:27.838Z,2.77
2023-03-05T23:17:54.712Z,1.83
2023-03-05T23:20:26.167Z,2.87
2023-03-05T23:22:56.272Z,2.80
2023-03-05T23:25:25.925Z,2.40
2023-03-05T23:27:52.798Z,1.87
2023-03-05T23:30:24.178Z,3.03
2023-03-05T23:33:02.909Z,2.60
2023-03-05T23:35:36.238Z,2.43
2023-03-05T23:38:06.478Z,2.50
2023-03-05T23:40:39.813Z,3.30
2023-03-05T23:43:06.534Z,2.30
2023-03-05T23:45:33.463Z,2.33
2023-03-05T23:48:00.229Z,2.60
2023-03-05T23:50:29.868Z,2.07
2023-03-05T23:52:57.106Z,2.30
2023-03-05T23:55:32.852Z,2.73
2023-03-05T23:57:59.498Z,3.03
